.
WxDataArchive / Data Records for 2007-12-10
2007-12-09 December 2007 2007-12-11

Data Records for Monday, 10 December 2007

Time	Temp	Chill	HIndex	Humid	Dewpt	 Wind 	HiWind	WindDir	Rain 	Barom 
-----	----	-----	------	-----	-----	------	------	-------	-----	----- 
00:00	29.4	29.4	29.4	95	28.1	0	0	---	0.00	30.206 
00:05	29.3	29.3	29.3	96	28.3	0	0	---	0.00	30.205 
00:10	29.3	29.3	29.3	96	28.3	0	0	---	0.00	30.207 
00:15	29.3	29.3	29.3	96	28.3	0	0	---	0.00	30.208 
00:20	29.3	29.3	29.3	95	28.0	0	0	---	0.00	30.209 
00:25	29.3	29.3	29.3	96	28.3	0	0	---	0.00	30.207 
00:30	29.3	29.3	29.3	96	28.3	0	0	---	0.00	30.208 
00:35	29.3	29.3	29.3	96	28.3	0	0	---	0.00	30.208 
00:40	29.3	29.3	29.3	96	28.3	0	0	---	0.00	30.209 
00:45	29.4	29.4	29.4	96	28.4	0	0	---	0.00	30.210 
00:50	29.4	29.4	29.4	96	28.4	0	0	---	0.00	30.214 
00:55	29.4	29.4	29.4	96	28.4	0	0	---	0.00	30.213 
01:00	29.4	29.4	29.4	96	28.4	0	0	---	0.00	30.220 
01:05	29.5	29.5	29.5	96	28.5	0	0	---	0.00	30.216 
01:10	29.5	29.5	29.5	96	28.5	0	0	---	0.00	30.214 
01:15	29.5	29.5	29.5	96	28.5	0	0	---	0.00	30.219 
01:20	29.5	29.5	29.5	96	28.5	0	0	---	0.00	30.218 
01:25	29.5	29.5	29.5	96	28.5	0	0	---	0.00	30.217 
01:30	29.7	29.7	29.7	96	28.7	0	0	---	0.00	30.217 
01:35	29.7	29.7	29.7	96	28.7	0	0	---	0.00	30.210 
01:40	29.7	29.7	29.7	96	28.7	0	0	---	0.00	30.215 
01:45	29.7	29.7	29.7	96	28.7	0	0	---	0.00	30.207 
01:50	29.5	29.5	29.5	96	28.5	0	0	---	0.00	30.216 
01:55	29.5	29.5	29.5	96	28.5	0	0	---	0.00	30.208 
02:00	29.5	29.5	29.5	96	28.5	0	0	---	0.00	30.216 
02:05	29.5	29.5	29.5	96	28.5	0	0	---	0.00	30.217 
02:10	29.5	29.5	29.5	96	28.5	0	0	---	0.00	30.216 
02:15	29.5	29.5	29.5	96	28.5	0	0	---	0.00	30.213 
02:20	29.5	29.5	29.5	96	28.5	0	0	---	0.00	30.210 
02:25	29.5	29.5	29.5	96	28.5	0	0	---	0.00	30.218 
02:30	29.5	29.5	29.5	96	28.5	0	0	---	0.00	30.219 
02:35	29.5	29.5	29.5	96	28.5	0	0	---	0.00	30.220 
02:40	29.5	29.5	29.5	96	28.5	0	0	---	0.00	30.226 
02:45	29.5	29.5	29.5	96	28.5	0	0	---	0.00	30.223 
02:50	29.7	29.7	29.7	96	28.7	0	0	---	0.00	30.227 
02:55	29.7	29.7	29.7	96	28.7	0	0	---	0.00	30.224 
03:00	29.7	29.7	29.7	96	28.7	0	0	---	0.00	30.230 
03:05	29.7	29.7	29.7	96	28.7	0	0	---	0.00	30.229 
03:10	29.7	29.7	29.7	96	28.7	0	0	---	0.00	30.231 
03:15	29.7	29.7	29.7	96	28.7	0	0	---	0.00	30.236 
03:20	29.7	29.7	29.7	96	28.7	0	0	---	0.00	30.236 
03:25	29.8	29.8	29.8	96	28.8	0	0	---	0.00	30.236 
03:30	29.8	29.8	29.8	96	28.8	0	0	---	0.00	30.234 
03:35	29.8	29.8	29.8	96	28.8	0	0	---	0.00	30.226 
03:40	29.8	29.8	29.8	96	28.8	0	0	---	0.00	30.224 
03:45	29.8	29.8	29.8	96	28.8	0	0	---	0.00	30.229 
03:50	29.8	29.8	29.8	96	28.8	0	0	---	0.00	30.227 
03:55	29.8	29.8	29.8	96	28.8	0	0	---	0.00	30.233 
04:00	29.8	29.8	29.8	96	28.8	0	0	---	0.00	30.234 
04:05	29.8	29.8	29.8	96	28.8	0	0	---	0.00	30.235 
04:10	29.8	29.8	29.8	96	28.8	0	0	---	0.00	30.231 
04:15	29.8	29.8	29.8	96	28.8	0	0	---	0.00	30.224 
04:20	29.8	29.8	29.8	95	28.5	0	0	---	0.00	30.222 
04:25	29.7	29.7	29.7	95	28.4	0	0	---	0.00	30.225 
04:30	29.7	29.7	29.7	95	28.4	0	0	---	0.00	30.225 
04:35	29.7	29.7	29.7	95	28.4	0	0	---	0.00	30.230 
04:40	29.7	29.7	29.7	95	28.4	0	0	---	0.00	30.230 
04:45	29.7	29.7	29.7	95	28.4	0	0	---	0.00	30.233 
04:50	29.5	29.5	29.5	95	28.2	0	0	---	0.00	30.237 
04:55	29.5	29.5	29.5	95	28.2	0	0	---	0.00	30.232 
05:00	29.5	29.5	29.5	95	28.2	0	0	---	0.00	30.226 
05:05	29.7	29.7	29.7	95	28.4	0	0	---	0.00	30.223 
05:10	29.7	29.7	29.7	95	28.4	0	0	---	0.00	30.223 
05:15	29.7	29.7	29.7	95	28.4	0	0	---	0.00	30.226 
05:20	29.7	29.7	29.7	95	28.4	0	0	---	0.00	30.230 
05:25	29.7	29.7	29.7	95	28.4	0	0	---	0.00	30.234 
05:30	29.7	29.7	29.7	95	28.4	0	0	---	0.00	30.227 
05:35	29.7	29.7	29.7	95	28.4	0	0	---	0.00	30.235 
05:40	29.7	29.7	29.7	95	28.4	0	0	---	0.00	30.237 
05:45	29.7	29.7	29.7	95	28.4	0	0	---	0.00	30.236 
05:50	29.7	29.7	29.7	95	28.4	0	0	---	0.00	30.231 
05:55	29.7	29.7	29.7	95	28.4	0	0	---	0.00	30.237 
06:00	29.7	29.7	29.7	95	28.4	0	0	---	0.00	30.241 
06:05	29.5	29.5	29.5	95	28.2	0	0	---	0.00	30.237 
06:10	29.7	29.7	29.7	95	28.4	0	0	---	0.00	30.238 
06:15	29.5	29.5	29.5	95	28.2	0	0	---	0.00	30.243 
06:20	29.5	29.5	29.5	95	28.2	0	0	---	0.00	30.247 
06:25	29.5	29.5	29.5	95	28.2	0	0	---	0.00	30.248 
06:30	29.5	29.5	29.5	95	28.2	0	0	---	0.00	30.252 
06:35	29.5	29.5	29.5	95	28.2	0	0	---	0.00	30.254 
06:40	29.5	29.5	29.5	95	28.2	0	0	---	0.00	30.258 
06:45	29.5	29.5	29.5	95	28.2	0	0	---	0.00	30.260 
06:50	29.7	29.7	29.7	95	28.4	0	0	---	0.00	30.253 
06:55	29.7	29.7	29.7	95	28.4	0	0	---	0.00	30.253 
07:00	29.7	29.7	29.7	95	28.4	0	0	---	0.00	30.251 
07:05	29.7	29.7	29.7	95	28.4	0	0	---	0.00	30.251 
07:10	29.7	29.7	29.7	95	28.4	0	0	---	0.00	30.253 
07:15	29.7	29.7	29.7	95	28.4	0	0	---	0.00	30.258 
07:20	29.7	29.7	29.7	95	28.4	0	0	---	0.00	30.254 
07:25	29.7	29.7	29.7	95	28.4	0	0	---	0.00	30.260 
07:30	29.7	29.7	29.7	95	28.4	0	0	---	0.00	30.264 
07:35	29.7	29.7	29.7	95	28.4	0	0	---	0.00	30.269 
07:40	29.7	29.7	29.7	95	28.4	0	0	---	0.00	30.276 
07:45	29.7	29.7	29.7	95	28.4	0	0	---	0.00	30.281 
07:50	29.7	29.7	29.7	95	28.4	0	0	---	0.00	30.275 
07:55	29.7	29.7	29.7	95	28.4	0	0	---	0.00	30.271 
08:00	29.7	29.7	29.7	95	28.4	0	0	---	0.00	30.273 
08:05	29.7	29.7	29.7	95	28.4	0	0	---	0.00	30.274 
08:10	29.7	29.7	29.7	95	28.4	0	0	---	0.00	30.282 
08:15	29.7	29.7	29.7	95	28.4	0	0	---	0.00	30.281 
08:20	29.7	29.7	29.7	95	28.4	0	0	---	0.00	30.280 
08:25	29.7	29.7	29.7	95	28.4	0	0	---	0.00	30.273 
08:30	29.7	29.7	29.7	95	28.4	0	0	---	0.00	30.281 
08:35	29.7	29.7	29.7	95	28.4	0	0	---	0.00	30.285 
08:40	29.7	29.7	29.7	95	28.4	0	0	---	0.00	30.285 
08:45	29.7	29.7	29.7	95	28.4	0	0	---	0.00	30.286 
08:50	29.7	29.7	29.7	95	28.4	0	0	---	0.00	30.286 
08:55	29.7	29.7	29.7	95	28.4	0	0	---	0.00	30.286 
09:00	29.7	29.7	29.7	95	28.4	0	0	---	0.00	30.285 
09:05	29.8	29.8	29.8	95	28.5	0	0	---	0.00	30.285 
09:10	29.8	29.8	29.8	95	28.5	0	0	---	0.00	30.285 
09:15	29.8	29.8	29.8	95	28.5	0	0	---	0.00	30.290 
09:20	29.8	29.8	29.8	95	28.5	0	0	---	0.00	30.286 
09:25	30.0	30.0	30.0	95	28.7	0	0	---	0.00	30.286 
09:30	30.0	30.0	30.0	95	28.7	0	0	---	0.00	30.296 
09:35	29.8	29.8	29.8	95	28.5	0	0	---	0.00	30.294 
09:40	30.0	30.0	30.0	95	28.7	0	0	---	0.00	30.296 
09:45	30.0	30.0	30.0	95	28.7	0	0	---	0.00	30.299 
09:50	30.0	30.0	30.0	95	28.7	0	0	---	0.00	30.300 
09:55	30.1	30.1	30.1	95	28.8	0	0	---	0.00	30.300 
10:00	30.3	30.3	30.3	95	29.0	0	0	---	0.00	30.298 
10:05	30.3	30.3	30.3	95	29.0	0	0	---	0.00	30.301 
10:10	30.3	30.3	30.3	95	29.0	0	0	---	0.00	30.301 
10:15	30.4	30.4	30.4	95	29.1	0	0	---	0.00	30.300 
10:20	30.4	30.4	30.4	95	29.1	0	0	---	0.00	30.298 
10:25	30.4	30.4	30.4	95	29.1	0	0	---	0.00	30.299 
10:30	30.6	30.6	30.6	95	29.3	0	0	---	0.00	30.297 
10:35	30.6	30.6	30.6	95	29.3	0	0	---	0.00	30.298 
10:40	30.7	30.7	30.7	95	29.4	0	0	---	0.00	30.300 
10:45	30.7	30.7	30.7	95	29.4	0	0	---	0.00	30.301 
10:50	30.7	30.7	30.7	94	29.2	0	0	---	0.00	30.302 
10:55	30.6	30.6	30.6	94	29.1	0	0	---	0.00	30.302 
11:00	30.6	30.6	30.6	94	29.1	0	0	---	0.00	30.301 
11:05	30.7	30.7	30.7	94	29.2	0	0	---	0.00	30.303 
11:10	30.9	30.9	30.9	94	29.4	0	0	---	0.00	30.303 
11:15	30.9	30.9	30.9	94	29.4	0	0	---	0.00	30.302 
11:20	31.0	31.0	31.0	94	29.5	0	0	---	0.00	30.304 
11:25	31.2	31.2	31.2	94	29.7	0	0	---	0.00	30.308 
11:30	31.2	31.2	31.2	94	29.7	0	0	---	0.00	30.307 
11:35	31.2	31.2	31.2	94	29.7	0	0	---	0.00	30.310 
11:40	31.3	31.3	31.3	94	29.8	0	0	---	0.00	30.311 
11:45	31.3	31.3	31.3	94	29.8	0	0	---	0.00	30.308 
11:50	31.3	31.3	31.3	94	29.8	0	0	---	0.00	30.311 
11:55	31.3	31.3	31.3	94	29.8	0	0	---	0.00	30.311 
12:00	31.3	31.3	31.3	94	29.8	0	0	---	0.00	30.305 
12:05	31.5	31.5	31.5	94	30.0	0	0	---	0.00	30.302 
12:10	31.5	31.5	31.5	94	30.0	0	0	---	0.00	30.300 
12:15	31.6	31.6	31.6	94	30.1	0	0	---	0.00	30.298 
12:20	31.6	31.6	31.6	93	29.8	0	0	---	0.00	30.294 
12:25	31.8	31.8	31.8	93	30.0	0	0	---	0.00	30.289 
12:30	32.1	32.1	32.1	93	30.3	0	0	---	0.00	30.291 
12:35	32.1	32.1	32.1	93	30.3	0	0	---	0.00	30.287 
12:40	32.2	32.2	32.2	93	30.4	0	0	---	0.00	30.288 
12:45	32.2	32.2	32.2	93	30.4	0	0	---	0.00	30.285 
12:50	32.4	32.4	32.4	93	30.6	0	0	---	0.00	30.284 
12:55	32.2	32.2	32.2	93	30.4	0	0	---	0.00	30.284 
13:00	32.2	32.2	32.2	93	30.4	0	0	---	0.00	30.283 
13:05	32.2	32.2	32.2	93	30.4	0	0	---	0.00	30.280 
13:10	32.2	32.2	32.2	92	30.1	0	0	---	0.00	30.282 
13:15	32.2	32.2	32.2	92	30.1	0	0	---	0.00	30.283 
13:20	32.2	32.2	32.2	92	30.1	0	0	---	0.00	30.283 
13:25	32.2	32.2	32.2	92	30.1	0	0	---	0.00	30.284 
13:30	32.1	32.1	32.1	92	30.0	0	0	---	0.00	30.284 
13:35	32.2	32.2	32.2	92	30.1	0	0	---	0.00	30.283 
13:40	32.2	32.2	32.2	92	30.1	0	0	---	0.00	30.282 
13:45	32.1	32.1	32.1	92	30.0	0	0	---	0.00	30.281 
13:50	32.2	32.2	32.2	92	30.1	0	0	---	0.00	30.281 
13:55	32.2	32.2	32.2	92	30.1	0	0	---	0.00	30.283 
14:00	32.1	32.1	32.1	92	30.0	0	0	---	0.00	30.284 
14:05	32.1	32.1	32.1	92	30.0	0	0	---	0.00	30.283 
14:10	32.1	32.1	32.1	92	30.0	0	0	---	0.00	30.281 
14:15	32.1	32.1	32.1	92	30.0	0	0	---	0.00	30.280 
14:20	32.1	32.1	32.1	92	30.0	0	0	---	0.00	30.282 
14:25	32.2	32.2	32.2	92	30.1	0	0	---	0.00	30.281 
14:30	32.1	32.1	32.1	91	29.8	0	0	---	0.00	30.280 
14:35	32.1	32.1	32.1	92	30.0	0	0	---	0.00	30.281 
14:40	32.1	32.1	32.1	92	30.0	0	0	---	0.00	30.270 
14:45	32.1	32.1	32.1	92	30.0	0	0	---	0.00	30.268 
14:50	32.1	32.1	32.1	92	30.0	0	0	---	0.00	30.268 
14:55	32.1	32.1	32.1	92	30.0	0	0	---	0.00	30.269 
15:00	31.9	31.9	31.9	92	29.8	0	0	---	0.00	30.271 
15:05	31.9	31.9	31.9	92	29.8	0	0	---	0.00	30.270 
15:10	31.8	31.8	31.8	92	29.7	0	0	---	0.00	30.269 
15:15	31.8	31.8	31.8	92	29.7	0	0	---	0.00	30.268 
15:20	31.8	31.8	31.8	92	29.7	0	0	---	0.00	30.268 
15:25	31.8	31.8	31.8	92	29.7	0	0	---	0.00	30.270 
15:30	31.6	31.6	31.6	91	29.3	0	0	---	0.00	30.268 
15:35	31.6	31.6	31.6	91	29.3	0	0	---	0.00	30.269 
15:40	31.6	31.6	31.6	91	29.3	0	0	---	0.00	30.271 
15:45	31.8	31.8	31.8	92	29.7	0	0	---	0.00	30.270 
15:50	31.8	31.8	31.8	92	29.7	0	0	---	0.00	30.269 
15:55	31.8	31.8	31.8	92	29.7	0	0	---	0.00	30.269 
16:00	31.8	31.8	31.8	92	29.7	0	0	---	0.00	30.269 
16:05	31.8	31.8	31.8	92	29.7	0	0	---	0.00	30.278 
16:10	31.8	31.8	31.8	92	29.7	0	0	---	0.00	30.279 
16:15	31.8	31.8	31.8	92	29.7	0	0	---	0.00	30.278 
16:20	31.6	31.6	31.6	92	29.5	0	0	---	0.00	30.280 
16:25	31.6	31.6	31.6	92	29.5	0	0	---	0.00	30.281 
16:30	31.6	31.6	31.6	92	29.5	0	0	---	0.00	30.281 
16:35	31.6	31.6	31.6	92	29.5	0	0	---	0.00	30.283 
16:40	31.6	31.6	31.6	92	29.5	0	0	---	0.00	30.283 
16:45	31.6	31.6	31.6	92	29.5	0	0	---	0.00	30.285 
16:50	31.6	31.6	31.6	92	29.5	0	0	---	0.00	30.291 
16:55	31.6	31.6	31.6	92	29.5	0	0	---	0.00	30.297 
17:00	31.6	31.6	31.6	92	29.5	0	0	---	0.00	30.298 
17:05	31.6	31.6	31.6	92	29.5	0	0	---	0.00	30.298 
17:10	31.6	31.6	31.6	92	29.5	0	0	---	0.00	30.294 
17:15	31.5	31.5	31.5	92	29.4	0	0	---	0.00	30.299 
17:20	31.5	31.5	31.5	92	29.4	0	0	---	0.00	30.299 
17:25	31.5	31.5	31.5	92	29.4	0	0	---	0.00	30.299 
17:30	31.5	31.5	31.5	92	29.4	0	0	---	0.00	30.297 
17:35	31.3	31.3	31.3	92	29.3	0	0	---	0.00	30.300 
17:40	31.3	31.3	31.3	92	29.3	0	0	---	0.00	30.301 
17:45	31.3	31.3	31.3	92	29.3	0	0	---	0.00	30.306 
17:50	31.3	31.3	31.3	92	29.3	0	0	---	0.00	30.307 
17:55	31.3	31.3	31.3	92	29.3	0	0	---	0.00	30.307 
18:00	31.3	31.3	31.3	92	29.3	0	0	---	0.00	30.306 
18:05	31.3	31.3	31.3	92	29.3	0	0	---	0.00	30.308 
18:10	31.3	31.3	31.3	92	29.3	0	0	---	0.00	30.309 
18:15	31.3	31.3	31.3	92	29.3	0	0	---	0.00	30.314 
18:20	31.2	31.2	31.2	92	29.2	0	0	---	0.00	30.315 
18:25	31.2	31.2	31.2	92	29.2	0	0	---	0.00	30.316 
18:30	31.0	31.0	31.0	92	29.0	0	0	---	0.00	30.314 
18:35	31.0	31.0	31.0	92	29.0	0	0	---	0.00	30.315 
18:40	31.0	31.0	31.0	92	29.0	0	0	---	0.00	30.315 
18:45	31.0	31.0	31.0	92	29.0	0	0	---	0.00	30.316 
18:50	31.0	31.0	31.0	93	29.2	0	0	---	0.00	30.320 
18:55	31.0	31.0	31.0	93	29.2	0	0	---	0.00	30.328 
19:00	31.0	31.0	31.0	93	29.2	0	0	---	0.00	30.331 
19:05	31.0	31.0	31.0	93	29.2	0	0	---	0.00	30.331 
19:10	31.0	31.0	31.0	93	29.2	0	0	---	0.00	30.330 
19:15	31.0	31.0	31.0	93	29.2	0	0	---	0.00	30.333 
19:20	31.0	31.0	31.0	93	29.2	0	0	---	0.00	30.339 
19:25	31.0	31.0	31.0	93	29.2	0	0	---	0.00	30.345 
19:30	30.9	30.9	30.9	93	29.1	0	0	---	0.00	30.344 
19:35	30.9	30.9	30.9	93	29.1	0	0	---	0.00	30.344 
19:40	30.9	30.9	30.9	93	29.1	0	0	---	0.00	30.346 
19:45	30.9	30.9	30.9	93	29.1	0	0	---	0.00	30.349 
19:50	30.9	30.9	30.9	93	29.1	0	0	---	0.00	30.347 
19:55	30.9	30.9	30.9	93	29.1	0	0	---	0.00	30.348 
20:00	30.7	30.7	30.7	93	28.9	0	0	---	0.00	30.351 
20:05	30.7	30.7	30.7	93	28.9	0	0	---	0.00	30.349 
20:10	30.7	30.7	30.7	93	28.9	0	0	---	0.00	30.357 
20:15	30.7	30.7	30.7	93	28.9	0	0	---	0.00	30.350 
20:20	30.7	30.7	30.7	93	28.9	0	0	---	0.00	30.348 
20:25	30.7	30.7	30.7	93	28.9	0	0	---	0.00	30.352 
20:30	30.7	30.7	30.7	93	28.9	0	0	---	0.00	30.352 
20:35	30.7	30.7	30.7	93	28.9	0	0	---	0.00	30.350 
20:40	30.6	30.6	30.6	93	28.8	0	0	---	0.00	30.349 
20:45	30.6	30.6	30.6	93	28.8	0	0	---	0.00	30.348 
20:50	30.6	30.6	30.6	94	29.1	0	0	---	0.00	30.350 
20:55	30.6	30.6	30.6	94	29.1	0	0	---	0.00	30.355 
21:00	30.6	30.6	30.6	94	29.1	0	0	---	0.00	30.356 
21:05	30.6	30.6	30.6	94	29.1	0	0	---	0.00	30.356 
21:10	30.6	30.6	30.6	94	29.1	0	0	---	0.00	30.350 
21:15	30.6	30.6	30.6	94	29.1	0	0	---	0.00	30.348 
21:20	30.6	30.6	30.6	94	29.1	0	0	---	0.00	30.346 
21:25	30.4	30.4	30.4	94	28.9	0	0	---	0.00	30.337 
21:30	30.4	30.4	30.4	94	28.9	0	0	---	0.00	30.336 
21:35	30.4	30.4	30.4	94	28.9	0	0	---	0.00	30.342 
21:40	30.4	30.4	30.4	94	28.9	0	0	---	0.00	30.341 
21:45	30.4	30.4	30.4	94	28.9	0	0	---	0.00	30.334 
21:50	30.3	30.3	30.3	94	28.8	0	0	---	0.00	30.331 
21:55	30.4	30.4	30.4	94	28.9	0	0	---	0.00	30.334 
22:00	30.4	30.4	30.4	94	28.9	0	0	---	0.00	30.332 
22:05	30.3	30.3	30.3	94	28.8	0	0	---	0.00	30.330 
22:10	30.3	30.3	30.3	95	29.0	0	0	---	0.00	30.329 
22:15	30.3	30.3	30.3	95	29.0	0	0	---	0.00	30.329 
22:20	30.3	30.3	30.3	95	29.0	0	0	---	0.00	30.325 
22:25	30.1	30.1	30.1	95	28.8	0	0	---	0.00	30.328 
22:30	30.1	30.1	30.1	95	28.8	0	0	---	0.00	30.329 
22:35	30.1	30.1	30.1	95	28.8	0	0	---	0.00	30.327 
22:40	30.1	30.1	30.1	95	28.8	0	0	---	0.00	30.322 
22:45	30.0	30.0	30.0	95	28.7	0	0	---	0.00	30.317 
22:50	30.0	30.0	30.0	95	28.7	0	0	---	0.00	30.316 
22:55	30.0	30.0	30.0	95	28.7	0	0	---	0.00	30.316 
23:00	30.0	30.0	30.0	95	28.7	0	0	---	0.00	30.314 
23:05	30.0	30.0	30.0	95	28.7	0	0	---	0.00	30.313 
23:10	30.0	30.0	30.0	95	28.7	0	0	---	0.00	30.309 
23:15	30.0	30.0	30.0	95	28.7	0	0	---	0.00	30.312 
23:20	30.0	30.0	30.0	95	28.7	0	0	---	0.00	30.309 
23:25	30.1	30.1	30.1	95	28.8	0	0	---	0.00	30.302 
23:30	30.1	30.1	30.1	95	28.8	0	0	---	0.00	30.301 
23:35	30.1	30.1	30.1	95	28.8	0	0	---	0.00	30.300 
23:40	30.1	30.1	30.1	95	28.8	0	0	---	0.00	30.297 
23:45	30.3	30.3	30.3	95	29.0	0	0	---	0.00	30.294 
23:50	30.3	30.3	30.3	95	29.0	0	0	---	0.00	30.287 
23:55	30.3	30.3	30.3	95	29.0	0	0	---	0.00	30.283 

CoCoRaHS
IN-AL-39
A2 Web Hosting
Creative Commons License
GoDaddy
Look for:

loaded 2017-12-11 14:30:41 • last modified 2010-11-18 10:43:29
Privacy PolicyDisclaimer
• wx.awcolley.com is powered by PmWiki v.2002016 •
• all content (unless otherwise noted) © 2017 A W Colley